AirNav   Pilot Hours Calculator
 
 1569 users online  

CL31 Caltrans District 7 Heliport
Los Angeles, California, USA

GOING TO LOS ANGELES?


FAA INFORMATION EFFECTIVE 05 DECEMBER 2019

Location

FAA Identifier: CL31
Lat/Long: 34-03-05.1000N 118-14-34.3700W
34-03.085000N 118-14.572833W
34.0514167,-118.2428806
(estimated)
Elevation: 484 ft. / 148 m (estimated)
Variation: 14E (1985)
Time zone: UTC -8 (UTC -7 during Daylight Saving Time)
Zip code: 90012

Heliport Operations

Heliport use: Private use. Permission required prior to landing
Activation date: 10/1984
Control tower: no
ARTCC: LOS ANGELES CENTER
FSS: HAWTHORNE FLIGHT SERVICE STATION
Attendance: UNATNDD
Segmented circle: no

Heliport Communications

WX ASOS at HHR (9 nm SW): PHONE 310-973-8930
WX AWOS-3PT at CPM (10 nm S): 127.150 (310-631-4958)
WX ASOS at LAX (10 nm SW): PHONE 310-568-1486
WX AWOS-3PT at EMT (11 nm E): 118.75 ((626) 444-1107)
WX ASOS at SMO (11 nm W): PHONE 310-392-6453
WX ASOS at BUR (11 nm NW): PHONE 818-841-1384
WX ASOS at LGB (15 nm S): PHONE 562-424-0572
WX AWOS-3PT at WHP (15 nm NW): 132.1 (818-899-9820)
WX ASOS at VNY (16 nm NW): PHONE 818-904-9213
WX ASOS at FUL (17 nm SE): PHONE 714-870-1372

Nearby radio navigation aids

VOR radial/distance  VOR name  Freq  Var
SMOr062/10.9SANTA MONICA VOR/DME110.8015E
LAXr038/11.8LOS ANGELES VORTAC113.6015E
VNYr115/16.1VAN NUYS VOR/DME113.1015E
SLIr315/18.6SEAL BEACH VORTAC115.7015E
POMr251/22.7POMONA VORTAC110.4015E
ELBr297/34.0EL TORO VOR/DME117.2014E
PMDr179/35.9PALMDALE VORTAC114.5015E
PDZr268/36.4PARADISE VORTAC112.2015E
FIMr105/36.6FILLMORE VORTAC112.5015E
RALr264/(39.9)RIVERSIDE VOR112.4014E

Heliport Services

Oil available: VFR, PRIVATE USE ONLY.

Runway Information

Helipad H1

Dimensions: 74 x 66 ft. / 23 x 20 m
Surface: concrete
Operational restrictions: ROOF TOP HELIPAD.
Latitude: 34-03.085000N
Longitude: 118-14.572833W
Elevation: 484.0 ft.
Traffic pattern: leftleft

Heliport Ownership and Management from official FAA records

Ownership: Publicly-owned
Owner: CALIFORNIA DEPT OF TRANSPORTATION
100 SOUTH MAIN ST
LOS ANGELES, CA 90012
Phone 213-897-3656
Manager: SYLVESTER WILSON
100 SOUTH MAIN ST
LOS ANGELES, CA 90012
Phone 213-897-3991
ADDNL CTC - MARCUS ATKINS - 213-897-0089

Additional Remarks

FOR CD CTC LOS ANGELES ARTCC AT 661-575-2079.

Instrument Procedures

There are no published instrument procedures at CL31.

Some nearby airports with instrument procedures:

KHHR - Jack Northrop Field/Hawthorne Municipal Airport (9 nm SW)
KLAX - Los Angeles International Airport (10 nm SW)
KEMT - San Gabriel Valley Airport (11 nm E)
KSMO - Santa Monica Municipal Airport (11 nm W)
KBUR - Bob Hope Airport (11 nm NW)
KLGB - Long Beach Airport (Daugherty Field) (15 nm S)
KWHP - Whiteman Airport (15 nm NW)
KVNY - Van Nuys Airport (16 nm NW)
KTOA - Zamperini Field Airport (16 nm S)
KFUL - Fullerton Municipal Airport (17 nm SE)
 
Loc | Ops | Rwys | IFR | FBO | Links
Com | Nav | Svcs | Stats | Notes
Area around CL31 (Caltrans District 7 Heliport)
 
Road maps at: MapQuest Bing Google
 
Aerial photo
No photo
 
Sectional chart

 
Airport distance calculator
Flying to Caltrans District 7 Heliport? Find the distance to fly.

From to CL31

Sunrise and sunset
Times for 07-Dec-2019
 Local
(UTC-8)
 Zulu
(UTC)
Morning civil twilight06:1914:19
Sunrise06:4614:46
Sunset16:4300:43
Evening civil twilight17:1001:10

Current date and time
Zulu (UTC)  07-Dec-2019 17:47:07
Local (UTC-8)  07-Dec-2019 09:47:07
 
METAR
KCQT 071652Z AUTO 09003KT 10SM BKN045 OVC055 18/13 A3014 RMK AO2 SLP206 T01830133
KHHR 
9nm SW 
071653Z 10005KT 10SM BKN043 OVC050 17/13 A3015 RMK AO2 SLP210 T01720133
KLAX 
10nm SW 
071653Z 10005KT 10SM FEW030 BKN042 OVC080 17/13 A3016 RMK AO2 SLP211 T01720133
KSMO 
11nm W 
071651Z 09003KT 10SM OVC042 17/13 A3016 RMK AO2 SLP211 T01670133
KBUR 
11nm NW 
071653Z 00000KT 7SM -RA FEW002 OVC032 14/13 A3015 RMK AO2 RAB33 SLP203 P0002 T01440133 $
KEMT 
11nm E 
071655Z 08003KT 10SM BKN042 BKN055 17/14 A3016
KWHP 
15nm NW 
071650Z 00000KT 8SM SCT005 OVC034 14/14 A3019
KLGB 
15nm S 
071653Z 05003KT 10SM SCT042 BKN050 OVC080 17/13 A3015 RMK AO2 SLP208 T01670128
KVNY 
16nm NW 
071722Z 00000KT 9SM FEW004 OVC034 15/14 A3017 RMK AO2 RAE03 P0001 T01500139
KTOA 
16nm S 
071647Z 00000KT 10SM BKN050 17/14 A3015
TAF
KLAX 
10nm SW 
071501Z 0715/0818 08005KT P6SM VCSH BKN035 OVC050 FM071700 12006KT 4SM -RA BR BKN018 OVC025 FM072100 24008KT 6SM -RA BR BKN015 OVC020 FM080300 19006KT 4SM -SHRA BR SCT008 OVC015 FM081200 26008KT 4SM -SHRA BR OVC015
KSMO 
11nm W 
071146Z 0712/0812 VRB03KT P6SM OVC035 FM071500 VRB03KT 6SM BR OVC025 FM071800 07006KT 4SM -RA BR BKN015 OVC025 FM072100 20006KT 6SM -RA BR BKN015 OVC020 FM080300 VRB03KT 4SM -SHRA BR BKN008 OVC012
KBUR 
11nm NW 
071457Z 0715/0812 00000KT 3SM -DZ BR BKN008 OVC030 FM071600 14006KT 4SM -RA BR BKN012 OVC025 FM072300 17007KT 4SM -RA BR OVC012 FM080300 15005KT 4SM -RA BR SCT008 OVC015
KLGB 
15nm S 
071146Z 0712/0812 VRB03KT P6SM BKN050 FM071600 09005KT 6SM -RA BKN025 OVC040 FM072000 17006KT 4SM -RA BR BKN012 OVC025 FM080400 VRB03KT 4SM -SHRA BR SCT008 OVC012
KVNY 
16nm NW 
071525Z 0715/0812 00000KT 2SM -RA BR BKN007 OVC023 FM071600 14005KT 5SM -RA BR BKN010 OVC020 FM072100 17007KT 4SM -RA BR OVC012 FM080300 VRB03KT 4SM -RA BR SCT008 OVC015
NOTAMs
Click for the latest NOTAMs
NOTAMs are issued by the DoD/FAA and will open in a separate window not controlled by AirNav.

 

 
 

Would you like to see your business listed on this page?

 If your business provides an interesting product or service to pilots, flight crews, aircraft, or users of the Caltrans District 7 Heliport, you should consider listing it here.  To start the listing process, click on the button below
 
Add a business
 

Other Pages about Caltrans District 7 Heliport

Update a link
 
Copyright © AirNav, LLC. All rights reserved. Privacy Policy  Contact